Eyr Myken — LCQU — position and weather

sailwx.info

Track history (hours):
 
Tides and Currents Weather Stations Pressure Air Temp Water Temp Dewpoint Dewpoint Depression Visibility Wind Speed Wind Dir Waves Ship Positions

Eyr Myken

Last reported at 2015-Apr-30 20:32 UTC. Time now 2015-May-04 06:58 UTC.
Position N 66°33' E 012°36'.

Length 18 m; draft 1.5 m.

Type: Medical transport. MMSI: 257054000.

Date/timePositionNaut miles runAvg speedWind from/ knotsBaromVisibWave heightAir tempDewpointWater temp
2015-Apr-30 20:32N 66°33' E 012°36'9 0.4
2015-Apr-29 19:10N 66°35' E 012°58'  
2015-Apr-27 08:09N 66°28' E 013°03'5 9.0
2015-Apr-27 07:33N 66°23' E 012°59'14 0.4
2015-Apr-25 18:33N 66°34' E 012°36'6 5.8
2015-Apr-25 17:31N 66°35' E 012°21'13 3.0
2015-Apr-25 13:21N 66°28' E 012°47'16 8.5
2015-Apr-25 11:29N 66°13' E 012°37'2122.8
2015-Apr-25 10:33N 66°30' E 012°06'18 0.8
2015-Apr-24 11:23N 66°30' E 012°50'6 1.2
2015-Apr-24 06:33N 66°25' E 012°58'4 0.1
2015-Apr-22 16:06N 66°27' E 012°51'4 6.0
2015-Apr-22 15:30N 66°24' E 012°50'0 0.0
2015-Apr-22 14:33N 66°24' E 012°50'0 0.0
2015-Apr-22 12:33N 66°24' E 012°50'1 0.9
2015-Apr-22 11:30N 66°25' E 012°50'9 0.4
2015-Apr-21 09:11N 66°34' E 012°48'  
Track history (hours):
 
Tides and Currents Weather Stations Pressure Air Temp Water Temp Dewpoint Dewpoint Depression Visibility Wind Speed Wind Dir Waves Ship Positions

Eyr Myken

Last reported at 2015-Apr-30 20:32 UTC. Time now 2015-May-04 06:58 UTC.
Position N 66°33' E 012°36'.

Length 18 m; draft 1.5 m.

Type: Medical transport. MMSI: 257054000.

Date/timePositionNaut miles runAvg speedWind from/ knotsBaromVisibWave heightAir tempDewpointWater temp
2015-Apr-30 20:32N 66°33' E 012°36'9 0.4
2015-Apr-29 19:10N 66°35' E 012°58'  
2015-Apr-27 08:09N 66°28' E 013°03'5 9.0
2015-Apr-27 07:33N 66°23' E 012°59'14 0.4
2015-Apr-25 18:33N 66°34' E 012°36'6 5.8
2015-Apr-25 17:31N 66°35' E 012°21'13 3.0
2015-Apr-25 13:21N 66°28' E 012°47'16 8.5
2015-Apr-25 11:29N 66°13' E 012°37'2122.8
2015-Apr-25 10:33N 66°30' E 012°06'18 0.8
2015-Apr-24 11:23N 66°30' E 012°50'6 1.2
2015-Apr-24 06:33N 66°25' E 012°58'4 0.1
2015-Apr-22 16:06N 66°27' E 012°51'4 6.0
2015-Apr-22 15:30N 66°24' E 012°50'0 0.0
2015-Apr-22 14:33N 66°24' E 012°50'0 0.0
2015-Apr-22 12:33N 66°24' E 012°50'1 0.9
2015-Apr-22 11:30N 66°25' E 012°50'9 0.4
2015-Apr-21 09:11N 66°34' E 012°48'  

Dump ship's entire track history